Polkton, North Carolina
Current Conditions -  °F | °C
As of 3:35 AM on Thursday 27 Nov 2014 (Local Time) from KAFP Reporting Station
Overcast Overcast  
Wind Chill: 42°   Ceiling: 7000
Heat Index: 42°   Visibility: 10mi
Dew Point: 36°   Wind: 0mph
Humidity: 79%   Direction: NA
Pressure: 30.02"   Gusts: NA
Location:  35.01°N, 80.2°W
Report Text: KAFP 270835Z AUTO 00000KT 10SM SCT045 SCT060 OVC070 06/02 A3002 RMK AO2 T00560023
Loading
Personal Weather Stations






























Interactive Weather Map New forecast layout! Learn more

10-Day Weather Forecast

Advertisements
Track Severe Weather on mobile